createdAt,value
2022-10-02T00:01:28.867Z,2.80
2022-10-02T00:03:59.505Z,3.30
2022-10-02T00:06:39.045Z,3.25
2022-10-02T00:09:15.634Z,3.20
2022-10-02T00:11:50.136Z,2.85
2022-10-02T00:14:21.258Z,3.40
2022-10-02T00:16:54.120Z,3.13
2022-10-02T00:19:23.335Z,2.72
2022-10-02T00:22:06.074Z,2.65
2022-10-02T00:24:41.654Z,2.83
2022-10-02T00:27:40.587Z,3.05
2022-10-02T00:30:13.358Z,2.72
2022-10-02T00:32:54.650Z,2.33
2022-10-02T00:35:49.750Z,2.30
2022-10-02T00:38:35.010Z,2.80
2022-10-02T00:41:39.679Z,3.58
2022-10-02T00:44:28.945Z,2.90
2022-10-02T00:47:05.510Z,2.75
2022-10-02T00:49:58.631Z,2.90
2022-10-02T00:52:46.599Z,3.45
2022-10-02T00:55:33.391Z,2.50
2022-10-02T00:58:32.613Z,2.85
2022-10-02T01:01:09.572Z,2.30
2022-10-02T01:03:41.050Z,2.90
2022-10-02T01:06:10.616Z,2.20
2022-10-02T01:08:41.015Z,2.38
2022-10-02T01:11:10.050Z,2.03
2022-10-02T01:13:39.067Z,2.10
2022-10-02T01:16:13.076Z,2.90
2022-10-02T01:18:45.834Z,2.42
2022-10-02T01:21:23.382Z,2.20
2022-10-02T01:24:00.049Z,2.55
2022-10-02T01:26:30.486Z,2.10
2022-10-02T01:28:59.510Z,2.22
2022-10-02T01:31:28.662Z,2.85
2022-10-02T01:34:00.638Z,2.40
2022-10-02T01:36:31.715Z,2.53
2022-10-02T01:39:01.311Z,2.00
2022-10-02T01:41:31.801Z,3.22
2022-10-02T01:44:03.613Z,2.60
2022-10-02T01:46:37.544Z,2.53
2022-10-02T01:49:21.010Z,2.55
2022-10-02T01:52:14.485Z,2.35
2022-10-02T01:54:56.466Z,2.97
2022-10-02T01:57:45.109Z,2.50
2022-10-02T02:00:19.032Z,2.58
2022-10-02T02:02:59.279Z,2.58
2022-10-02T02:05:44.501Z,2.55
2022-10-02T02:08:25.691Z,2.60
2022-10-02T02:11:08.378Z,2.38
2022-10-02T02:13:46.950Z,2.88
2022-10-02T02:16:25.338Z,2.40
2022-10-02T02:19:01.484Z,2.60
2022-10-02T02:21:34.430Z,2.40
2022-10-02T02:24:08.919Z,2.80
2022-10-02T02:26:39.490Z,3.10
2022-10-02T02:29:12.190Z,2.30
2022-10-02T02:31:48.129Z,2.05
2022-10-02T02:34:21.766Z,2.70
2022-10-02T02:36:57.839Z,2.60
2022-10-02T02:39:33.886Z,2.63
2022-10-02T02:42:06.329Z,2.47
2022-10-02T02:44:43.830Z,2.33
2022-10-02T02:47:18.078Z,3.53
2022-10-02T02:49:54.175Z,2.78
2022-10-02T02:52:28.650Z,2.50
2022-10-02T02:55:03.418Z,2.63
2022-10-02T02:57:39.348Z,2.42
2022-10-02T03:00:11.185Z,2.60
2022-10-02T03:02:40.184Z,2.30
2022-10-02T03:05:16.183Z,2.20
2022-10-02T03:07:52.541Z,1.92
2022-10-02T03:10:36.938Z,2.05
2022-10-02T03:13:21.594Z,2.72
2022-10-02T03:16:07.897Z,2.53
2022-10-02T03:18:54.540Z,2.50
2022-10-02T03:21:31.621Z,2.80
2022-10-02T03:24:12.750Z,2.47
2022-10-02T03:26:46.156Z,2.35
2022-10-02T03:29:19.683Z,2.65
2022-10-02T03:31:51.199Z,2.90
2022-10-02T03:34:20.927Z,2.85
2022-10-02T03:36:49.886Z,2.40
2022-10-02T03:39:26.403Z,2.40
2022-10-02T03:41:56.138Z,2.60
2022-10-02T03:44:25.220Z,2.08
2022-10-02T03:46:55.506Z,2.80
2022-10-02T03:49:24.590Z,2.88
2022-10-02T03:51:53.506Z,2.05
2022-10-02T03:54:23.435Z,4.03
2022-10-02T03:56:56.941Z,2.40
2022-10-02T03:59:41.372Z,3.10
2022-10-02T04:02:24.601Z,2.60
2022-10-02T04:04:57.653Z,2.40
2022-10-02T04:07:33.963Z,2.97
2022-10-02T04:10:23.679Z,2.90
2022-10-02T04:12:57.881Z,2.20
2022-10-02T04:15:35.517Z,2.63
2022-10-02T04:18:12.541Z,2.97
2022-10-02T04:20:46.834Z,3.15
2022-10-02T04:23:24.409Z,3.83
2022-10-02T04:26:01.123Z,4.15
2022-10-02T04:28:38.657Z,3.13
2022-10-02T04:31:14.099Z,3.10
2022-10-02T04:33:44.624Z,3.00
2022-10-02T04:36:30.033Z,2.88
2022-10-02T04:39:20.942Z,2.97
2022-10-02T04:42:07.011Z,2.85
2022-10-02T04:44:51.297Z,2.50
2022-10-02T04:47:54.117Z,2.70
2022-10-02T04:50:41.506Z,3.38
2022-10-02T04:53:42.344Z,3.15
2022-10-02T04:56:37.770Z,3.15
2022-10-02T04:59:27.222Z,2.70
2022-10-02T05:02:09.195Z,3.08
2022-10-02T05:04:56.297Z,3.05
2022-10-02T05:08:04.242Z,3.20
2022-10-02T05:10:58.666Z,4.35
2022-10-02T05:13:57.811Z,3.20
2022-10-02T05:16:42.681Z,3.40
2022-10-02T05:19:30.533Z,3.15
2022-10-02T05:22:30.505Z,3.42
2022-10-02T05:25:26.033Z,2.80
2022-10-02T05:28:26.011Z,2.60
2022-10-02T05:31:04.265Z,2.28
2022-10-02T05:33:57.785Z,2.83
2022-10-02T05:36:44.447Z,2.03
2022-10-02T05:39:19.248Z,2.67
2022-10-02T05:41:59.458Z,3.10
2022-10-02T05:44:35.792Z,3.00
2022-10-02T05:47:14.535Z,2.90
2022-10-02T05:49:52.960Z,3.63
2022-10-02T05:52:25.917Z,10.77
2022-10-02T05:55:00.914Z,7.60
2022-10-02T05:57:36.197Z,5.53
2022-10-02T06:00:18.400Z,4.55
2022-10-02T06:02:54.115Z,3.70
2022-10-02T06:05:30.472Z,5.10
2022-10-02T06:08:03.307Z,6.68
2022-10-02T06:10:39.395Z,6.72
2022-10-02T06:13:19.392Z,6.95
2022-10-02T06:15:54.016Z,7.75
2022-10-02T06:18:27.891Z,6.78
2022-10-02T06:21:02.321Z,5.10
2022-10-02T06:23:37.106Z,5.40
2022-10-02T06:26:12.610Z,5.10
2022-10-02T06:28:49.554Z,5.35
2022-10-02T06:31:27.629Z,4.28
2022-10-02T06:33:56.831Z,4.55
2022-10-02T06:36:49.100Z,3.70
2022-10-02T06:39:42.075Z,2.90
2022-10-02T06:42:23.539Z,3.58
2022-10-02T06:45:06.190Z,4.00
2022-10-02T06:47:58.658Z,3.35
2022-10-02T06:50:47.565Z,3.90
2022-10-02T06:53:34.706Z,7.15
2022-10-02T06:56:17.400Z,7.63
2022-10-02T06:59:04.662Z,5.43
2022-10-02T07:01:57.309Z,4.15
2022-10-02T07:04:54.036Z,3.50
2022-10-02T07:07:43.986Z,3.30
2022-10-02T07:10:33.617Z,2.95
2022-10-02T07:13:29.287Z,3.50
2022-10-02T07:16:49.800Z,4.00
2022-10-02T07:19:47.770Z,3.50
2022-10-02T07:22:44.879Z,4.10
2022-10-02T07:25:42.533Z,2.80
2022-10-02T07:28:20.365Z,3.30
2022-10-02T07:30:59.204Z,3.33
2022-10-02T07:33:48.918Z,3.33
2022-10-02T07:36:32.485Z,4.47
2022-10-02T07:39:19.876Z,7.15
2022-10-02T07:42:39.828Z,3.40
2022-10-02T07:45:33.029Z,3.28
2022-10-02T07:48:34.775Z,3.70
2022-10-02T07:51:44.187Z,3.70
2022-10-02T07:54:36.369Z,3.47
2022-10-02T07:57:21.705Z,4.15
2022-10-02T07:59:53.442Z,4.40
2022-10-02T08:02:31.824Z,3.80
2022-10-02T08:05:07.370Z,3.20
2022-10-02T08:07:37.186Z,3.90
2022-10-02T08:10:10.032Z,3.78
2022-10-02T08:12:44.798Z,4.00
2022-10-02T08:15:19.098Z,4.93
2022-10-02T08:17:53.969Z,4.90
2022-10-02T08:20:31.199Z,5.05
2022-10-02T08:23:08.328Z,4.63
2022-10-02T08:25:44.448Z,4.78
2022-10-02T08:28:22.496Z,3.70
2022-10-02T08:30:51.903Z,4.45
2022-10-02T08:33:23.243Z,4.38
2022-10-02T08:36:23.462Z,4.55
2022-10-02T08:39:00.825Z,4.55
2022-10-02T08:42:12.066Z,4.25
2022-10-02T08:45:18.729Z,3.95
2022-10-02T08:48:23.478Z,3.28
2022-10-02T08:51:26.612Z,3.00
2022-10-02T08:54:28.731Z,3.10
2022-10-02T08:57:22.753Z,2.88
2022-10-02T09:00:08.053Z,3.40
2022-10-02T09:03:44.218Z,3.60
2022-10-02T09:07:08.887Z,3.38
2022-10-02T09:10:36.987Z,3.30
2022-10-02T09:13:50.906Z,3.83
2022-10-02T09:16:30.990Z,3.50
2022-10-02T09:19:04.016Z,4.70
2022-10-02T09:21:54.672Z,3.15
2022-10-02T09:24:59.257Z,3.13
2022-10-02T09:28:43.159Z,3.80
2022-10-02T09:32:06.782Z,3.88
2022-10-02T09:35:26.606Z,4.00
2022-10-02T09:38:47.163Z,3.83
2022-10-02T09:42:01.876Z,5.00
2022-10-02T09:45:28.478Z,4.10
2022-10-02T09:48:52.874Z,4.50
2022-10-02T09:52:12.372Z,3.88
2022-10-02T09:55:39.201Z,4.20
2022-10-02T09:58:56.994Z,4.32
2022-10-02T10:01:54.944Z,4.47
2022-10-02T10:05:13.115Z,2.60
2022-10-02T10:08:22.246Z,2.97
2022-10-02T10:11:11.122Z,2.67
2022-10-02T10:14:12.510Z,2.38
2022-10-02T10:17:11.547Z,2.53
2022-10-02T10:20:46.219Z,2.65
2022-10-02T10:24:00.565Z,2.00
2022-10-02T10:27:07.841Z,1.90
2022-10-02T10:30:13.747Z,2.38
2022-10-02T10:33:35.439Z,2.00
2022-10-02T10:36:57.279Z,2.00
2022-10-02T10:40:11.196Z,2.13
2022-10-02T10:43:41.942Z,3.00
2022-10-02T10:47:00.830Z,2.60
2022-10-02T10:50:06.566Z,2.00
2022-10-02T10:53:03.934Z,2.50
2022-10-02T10:56:17.606Z,2.05
2022-10-02T10:59:25.682Z,2.95
2022-10-02T11:02:31.549Z,2.03
2022-10-02T11:05:22.587Z,2.00
2022-10-02T11:08:18.716Z,1.95
2022-10-02T11:11:00.614Z,1.70
2022-10-02T11:13:58.181Z,1.50
2022-10-02T11:17:08.914Z,2.35
2022-10-02T11:20:03.186Z,1.83
2022-10-02T11:22:57.956Z,1.95
2022-10-02T11:25:59.432Z,1.90
2022-10-02T11:29:08.038Z,1.58
2022-10-02T11:32:21.057Z,1.60
2022-10-02T11:35:06.653Z,1.30
2022-10-02T11:38:04.404Z,1.50
2022-10-02T11:40:59.586Z,1.23
2022-10-02T11:44:06.285Z,1.40
2022-10-02T11:46:57.637Z,1.10
2022-10-02T11:50:14.698Z,1.50
2022-10-02T11:53:24.617Z,1.90
2022-10-02T11:56:24.811Z,1.95
2022-10-02T11:59:18.313Z,2.92
2022-10-02T12:01:55.958Z,2.50
2022-10-02T12:04:40.833Z,2.00
2022-10-02T12:07:24.432Z,1.27
2022-10-02T12:10:15.260Z,1.75
2022-10-02T12:12:54.939Z,2.20
2022-10-02T12:15:37.525Z,1.90
2022-10-02T12:18:27.963Z,1.40
2022-10-02T12:21:32.918Z,1.60
2022-10-02T12:24:32.257Z,1.75
2022-10-02T12:27:13.614Z,1.40
2022-10-02T12:29:54.567Z,1.63
2022-10-02T12:33:09.127Z,1.50
2022-10-02T12:36:05.278Z,2.00
2022-10-02T12:38:52.233Z,1.50
2022-10-02T12:41:48.641Z,2.60
2022-10-02T12:44:43.808Z,2.30
2022-10-02T12:47:57.186Z,2.28
2022-10-02T12:50:51.643Z,2.20
2022-10-02T12:54:07.549Z,3.45
2022-10-02T12:57:11.159Z,3.35
2022-10-02T12:59:49.519Z,2.65
2022-10-02T13:03:02.038Z,3.10
2022-10-02T13:06:29.637Z,2.90
2022-10-02T13:09:21.603Z,3.17
2022-10-02T13:12:12.232Z,3.10
2022-10-02T13:15:04.295Z,1.50
2022-10-02T13:17:46.143Z,2.70
2022-10-02T13:20:28.187Z,1.77
2022-10-02T13:23:15.460Z,1.58
2022-10-02T13:26:01.098Z,2.25
2022-10-02T13:29:06.722Z,3.80
2022-10-02T13:31:53.901Z,2.70
2022-10-02T13:34:51.540Z,2.10
2022-10-02T13:37:34.224Z,1.90
2022-10-02T13:40:25.920Z,1.48
2022-10-02T13:43:29.004Z,1.75
2022-10-02T13:46:08.288Z,2.53
2022-10-02T13:48:55.943Z,2.53
2022-10-02T13:51:32.604Z,1.48
2022-10-02T13:54:45.117Z,1.35
2022-10-02T13:57:32.124Z,1.98
2022-10-02T14:00:10.938Z,1.52
2022-10-02T14:02:49.919Z,1.50
2022-10-02T14:05:32.532Z,1.60
2022-10-02T14:08:17.445Z,1.40
2022-10-02T14:11:00.104Z,1.35
2022-10-02T14:13:49.169Z,1.58
2022-10-02T14:16:34.968Z,1.30
2022-10-02T14:19:27.604Z,1.40
2022-10-02T14:22:26.835Z,1.20
2022-10-02T14:25:14.366Z,1.40
2022-10-02T14:28:16.545Z,1.20
2022-10-02T14:31:02.764Z,1.42
2022-10-02T14:33:48.732Z,1.30
2022-10-02T14:36:26.481Z,1.23
2022-10-02T14:39:11.701Z,1.40
2022-10-02T14:42:08.316Z,1.10
2022-10-02T14:45:21.409Z,1.33
2022-10-02T14:48:14.343Z,1.08
2022-10-02T14:51:03.407Z,1.77
2022-10-02T14:54:03.134Z,2.10
2022-10-02T14:56:53.259Z,1.90
2022-10-02T15:00:02.996Z,2.40
2022-10-02T15:03:10.959Z,2.03
2022-10-02T15:05:59.323Z,2.35
2022-10-02T15:08:34.639Z,1.70
2022-10-02T15:11:08.769Z,1.60
2022-10-02T15:13:45.839Z,1.63
2022-10-02T15:16:37.159Z,1.60
2022-10-02T15:19:13.554Z,1.83
2022-10-02T15:21:52.184Z,1.90
2022-10-02T15:24:32.729Z,1.45
2022-10-02T15:27:22.014Z,3.40
2022-10-02T15:30:06.054Z,9.52
2022-10-02T15:32:56.975Z,9.10
2022-10-02T15:36:15.050Z,9.43
2022-10-02T15:39:09.957Z,8.13
2022-10-02T15:41:48.627Z,9.18
2022-10-02T15:44:37.765Z,2.95
2022-10-02T15:47:22.465Z,2.58
2022-10-02T15:50:11.775Z,2.50
2022-10-02T15:52:51.083Z,3.10
2022-10-02T15:55:31.015Z,2.78
2022-10-02T15:58:15.973Z,2.70
2022-10-02T16:01:21.409Z,2.28
2022-10-02T16:03:54.545Z,1.90
2022-10-02T16:06:50.574Z,1.90
2022-10-02T16:09:43.087Z,3.70
2022-10-02T16:12:42.058Z,3.63
2022-10-02T16:15:24.044Z,2.53
2022-10-02T16:18:18.054Z,3.20
2022-10-02T16:21:06.436Z,4.00
2022-10-02T16:24:13.125Z,5.40
2022-10-02T16:27:19.461Z,5.65
2022-10-02T16:30:07.696Z,11.80
2022-10-02T16:33:10.621Z,6.43
2022-10-02T16:36:23.362Z,7.20
2022-10-02T16:39:04.487Z,3.17
2022-10-02T16:41:39.051Z,4.38
2022-10-02T16:44:47.115Z,7.28
2022-10-02T16:47:27.771Z,2.65
2022-10-02T16:50:03.737Z,2.60
2022-10-02T16:52:42.091Z,2.65
2022-10-02T16:55:24.156Z,3.17
2022-10-02T16:58:14.794Z,3.13
2022-10-02T17:00:55.837Z,3.40
2022-10-02T17:03:33.623Z,6.13
2022-10-02T17:06:11.870Z,4.95
2022-10-02T17:08:47.869Z,3.85
2022-10-02T17:11:22.744Z,3.05
2022-10-02T17:14:11.033Z,2.75
2022-10-02T17:16:53.130Z,2.10
2022-10-02T17:19:28.734Z,3.05
2022-10-02T17:22:04.402Z,2.55
2022-10-02T17:24:43.688Z,1.95
2022-10-02T17:27:20.458Z,2.10
2022-10-02T17:30:00.216Z,2.25
2022-10-02T17:32:56.619Z,2.20
2022-10-02T17:35:44.654Z,2.13
2022-10-02T17:38:52.175Z,2.60
2022-10-02T17:41:42.283Z,2.38
2022-10-02T17:44:25.504Z,2.70
2022-10-02T17:47:29.014Z,2.70
2022-10-02T17:50:12.670Z,2.60
2022-10-02T17:53:03.834Z,2.30
2022-10-02T17:56:24.330Z,2.50
2022-10-02T17:59:27.450Z,2.70
2022-10-02T18:02:10.272Z,2.70
2022-10-02T18:05:08.684Z,2.90
2022-10-02T18:07:59.279Z,2.97
2022-10-02T18:10:38.338Z,2.53
2022-10-02T18:13:24.385Z,2.63
2022-10-02T18:16:40.980Z,2.58
2022-10-02T18:19:27.692Z,2.60
2022-10-02T18:22:15.985Z,2.58
2022-10-02T18:25:19.056Z,3.72
2022-10-02T18:28:24.580Z,4.20
2022-10-02T18:31:15.243Z,4.00
2022-10-02T18:34:10.541Z,4.03
2022-10-02T18:36:59.193Z,4.50
2022-10-02T18:39:41.604Z,4.20
2022-10-02T18:42:49.749Z,3.90
2022-10-02T18:45:41.356Z,3.60
2022-10-02T18:48:32.175Z,4.75
2022-10-02T18:51:21.507Z,4.18
2022-10-02T18:54:15.260Z,4.30
2022-10-02T18:57:00.346Z,4.15
2022-10-02T18:59:44.787Z,4.20
2022-10-02T19:02:34.016Z,4.20
2022-10-02T19:05:31.180Z,4.00
2022-10-02T19:08:16.523Z,3.15
2022-10-02T19:10:47.879Z,3.00
2022-10-02T19:13:25.679Z,4.18
2022-10-02T19:15:58.267Z,4.40
2022-10-02T19:18:29.409Z,4.38
2022-10-02T19:21:06.559Z,5.30
2022-10-02T19:23:40.127Z,5.13
2022-10-02T19:26:20.132Z,4.93
2022-10-02T19:28:55.433Z,5.25
2022-10-02T19:31:28.001Z,4.57
2022-10-02T19:34:02.160Z,4.10
2022-10-02T19:36:35.493Z,4.05
2022-10-02T19:39:14.350Z,4.25
2022-10-02T19:41:45.386Z,4.57
2022-10-02T19:44:21.787Z,4.90
2022-10-02T19:46:53.274Z,5.03
2022-10-02T19:49:26.277Z,4.25
2022-10-02T19:51:57.126Z,4.57
2022-10-02T19:54:30.611Z,4.32
2022-10-02T19:57:05.239Z,5.45
2022-10-02T19:59:41.804Z,5.20
2022-10-02T20:02:19.504Z,5.50
2022-10-02T20:04:50.409Z,5.65
2022-10-02T20:07:24.375Z,6.10
2022-10-02T20:09:57.964Z,5.30
2022-10-02T20:12:32.358Z,6.22
2022-10-02T20:15:07.272Z,5.43
2022-10-02T20:17:37.078Z,5.22
2022-10-02T20:20:12.896Z,5.95
2022-10-02T20:22:49.774Z,5.30
2022-10-02T20:25:26.564Z,5.53
2022-10-02T20:28:02.442Z,5.10
2022-10-02T20:30:36.399Z,5.60
2022-10-02T20:33:14.892Z,5.75
2022-10-02T20:35:48.661Z,5.68
2022-10-02T20:38:24.829Z,5.35
2022-10-02T20:40:56.402Z,5.45
2022-10-02T20:43:32.766Z,5.38
2022-10-02T20:46:36.635Z,5.22
2022-10-02T20:50:08.140Z,5.18
2022-10-02T20:53:31.058Z,5.20
2022-10-02T20:56:08.969Z,5.20
2022-10-02T20:59:23.668Z,5.13
2022-10-02T21:02:09.609Z,5.68
2022-10-02T21:05:21.347Z,6.07
2022-10-02T21:08:23.931Z,5.82
2022-10-02T21:11:49.415Z,5.05
2022-10-02T21:14:54.533Z,5.20
2022-10-02T21:17:58.055Z,5.50
2022-10-02T21:21:08.314Z,5.38
2022-10-02T21:24:41.720Z,4.75
2022-10-02T21:27:53.003Z,4.60
2022-10-02T21:30:34.856Z,5.13
2022-10-02T21:33:12.480Z,5.50
2022-10-02T21:35:52.128Z,6.20
2022-10-02T21:38:47.231Z,6.72
2022-10-02T21:41:59.455Z,5.53
2022-10-02T21:45:23.992Z,5.30
2022-10-02T21:48:50.123Z,5.97
2022-10-02T21:51:57.274Z,5.00
2022-10-02T21:55:18.214Z,5.30
2022-10-02T21:58:21.953Z,4.70
2022-10-02T22:01:29.610Z,5.13
2022-10-02T22:04:36.116Z,4.70
2022-10-02T22:07:10.917Z,6.00
2022-10-02T22:09:51.943Z,6.25
2022-10-02T22:12:39.680Z,5.13
2022-10-02T22:15:19.689Z,6.18
2022-10-02T22:17:59.558Z,5.63
2022-10-02T22:21:03.863Z,4.82
2022-10-02T22:23:51.775Z,5.00
2022-10-02T22:26:44.310Z,5.30
2022-10-02T22:29:19.615Z,5.13
2022-10-02T22:32:30.027Z,4.72
2022-10-02T22:35:11.752Z,4.40
2022-10-02T22:38:04.201Z,4.70
2022-10-02T22:40:48.121Z,4.60
2022-10-02T22:43:30.042Z,4.70
2022-10-02T22:46:29.403Z,4.55
2022-10-02T22:49:06.339Z,5.03
2022-10-02T22:51:45.347Z,4.15
2022-10-02T22:54:28.062Z,5.03
2022-10-02T22:57:15.999Z,4.65
2022-10-02T23:00:07.776Z,4.63
2022-10-02T23:02:54.171Z,4.60
2022-10-02T23:05:36.264Z,4.00
2022-10-02T23:08:20.849Z,3.60
2022-10-02T23:10:56.286Z,3.53
2022-10-02T23:13:45.932Z,3.95
2022-10-02T23:16:34.283Z,2.83
2022-10-02T23:19:15.540Z,3.20
2022-10-02T23:22:08.882Z,2.90
2022-10-02T23:24:56.555Z,3.67
2022-10-02T23:27:40.288Z,3.80
2022-10-02T23:30:19.524Z,4.13
2022-10-02T23:32:55.001Z,3.92
2022-10-02T23:35:31.534Z,5.68
2022-10-02T23:38:14.150Z,5.30
2022-10-02T23:41:24.685Z,6.60
2022-10-02T23:44:09.799Z,6.78
2022-10-02T23:47:00.681Z,7.05
2022-10-02T23:49:35.609Z,7.63
2022-10-02T23:52:49.911Z,7.78
2022-10-02T23:55:56.789Z,8.55
2022-10-02T23:58:58.778Z,9.55
